sensor_id;sensor_type;location;lat;lon;timestamp;pressure;altitude;pressure_sealevel;temperature;humidity
45541;BME280;31265;49.680;8.608;2023-07-20T00:01:24;100326.53;;;19.47;100.00
45541;BME280;31265;49.680;8.608;2023-07-20T00:03:52;100332.06;;;19.45;100.00
45541;BME280;31265;49.680;8.608;2023-07-20T00:06:25;100331.31;;;19.30;100.00
45541;BME280;31265;49.680;8.608;2023-07-20T00:08:54;100332.88;;;19.20;100.00
45541;BME280;31265;49.680;8.608;2023-07-20T00:11:26;100324.66;;;19.10;100.00
45541;BME280;31265;49.680;8.608;2023-07-20T00:13:55;100325.69;;;19.03;100.00
45541;BME280;31265;49.680;8.608;2023-07-20T00:16:23;100330.78;;;18.93;100.00
45541;BME280;31265;49.680;8.608;2023-07-20T00:18:52;100332.75;;;18.90;100.00
45541;BME280;31265;49.680;8.608;2023-07-20T00:21:20;100332.03;;;18.89;100.00
45541;BME280;31265;49.680;8.608;2023-07-20T00:23:50;100323.25;;;18.83;100.00
45541;BME280;31265;49.680;8.608;2023-07-20T00:26:18;100330.13;;;18.80;100.00
45541;BME280;31265;49.680;8.608;2023-07-20T00:28:50;100322.13;;;18.88;100.00
45541;BME280;31265;49.680;8.608;2023-07-20T00:31:19;100325.75;;;18.77;100.00
45541;BME280;31265;49.680;8.608;2023-07-20T00:33:47;100332.38;;;18.70;100.00
45541;BME280;31265;49.680;8.608;2023-07-20T00:36:16;100331.06;;;18.59;100.00
45541;BME280;31265;49.680;8.608;2023-07-20T00:38:44;100331.16;;;18.47;100.00
45541;BME280;31265;49.680;8.608;2023-07-20T00:41:14;100337.44;;;18.34;100.00
45541;BME280;31265;49.680;8.608;2023-07-20T00:43:42;100330.41;;;18.21;100.00
45541;BME280;31265;49.680;8.608;2023-07-20T00:46:11;100334.63;;;18.09;100.00
45541;BME280;31265;49.680;8.608;2023-07-20T00:48:39;100341.25;;;18.01;100.00
45541;BME280;31265;49.680;8.608;2023-07-20T00:51:09;100341.28;;;17.90;100.00
45541;BME280;31265;49.680;8.608;2023-07-20T00:53:39;100338.72;;;17.82;100.00
45541;BME280;31265;49.680;8.608;2023-07-20T00:56:07;100343.13;;;17.73;100.00
45541;BME280;31265;49.680;8.608;2023-07-20T00:58:37;100344.72;;;17.65;100.00
45541;BME280;31265;49.680;8.608;2023-07-20T01:01:05;100342.28;;;17.59;100.00
45541;BME280;31265;49.680;8.608;2023-07-20T01:03:35;100351.81;;;17.54;100.00
45541;BME280;31265;49.680;8.608;2023-07-20T01:06:09;100342.94;;;17.34;100.00
45541;BME280;31265;49.680;8.608;2023-07-20T01:08:47;100337.81;;;17.18;100.00
45541;BME280;31265;49.680;8.608;2023-07-20T01:11:23;100338.16;;;17.01;100.00
45541;BME280;31265;49.680;8.608;2023-07-20T01:13:57;100338.63;;;16.86;100.00
45541;BME280;31265;49.680;8.608;2023-07-20T01:16:27;100335.31;;;16.77;100.00
45541;BME280;31265;49.680;8.608;2023-07-20T01:18:55;100335.28;;;16.66;100.00
45541;BME280;31265;49.680;8.608;2023-07-20T01:21:29;100334.53;;;16.53;100.00
45541;BME280;31265;49.680;8.608;2023-07-20T01:27:22;100336.28;;;16.25;100.00
45541;BME280;31265;49.680;8.608;2023-07-20T01:30:08;100341.22;;;16.15;100.00
45541;BME280;31265;49.680;8.608;2023-07-20T01:32:42;100339.09;;;16.04;100.00
45541;BME280;31265;49.680;8.608;2023-07-20T01:35:16;100335.16;;;15.97;100.00
45541;BME280;31265;49.680;8.608;2023-07-20T01:37:46;100340.97;;;15.89;100.00
45541;BME280;31265;49.680;8.608;2023-07-20T01:40:14;100342.66;;;15.83;100.00
45541;BME280;31265;49.680;8.608;2023-07-20T01:42:45;100346.97;;;15.74;100.00
45541;BME280;31265;49.680;8.608;2023-07-20T01:45:14;100343.75;;;15.68;100.00
45541;BME280;31265;49.680;8.608;2023-07-20T01:47:44;100351.81;;;15.74;100.00
45541;BME280;31265;49.680;8.608;2023-07-20T01:50:12;100351.28;;;15.65;100.00
45541;BME280;31265;49.680;8.608;2023-07-20T01:52:41;100350.25;;;15.61;100.00
45541;BME280;31265;49.680;8.608;2023-07-20T01:55:09;100356.06;;;15.53;100.00
45541;BME280;31265;49.680;8.608;2023-07-20T01:57:37;100343.72;;;15.46;100.00
45541;BME280;31265;49.680;8.608;2023-07-20T02:00:07;100338.47;;;15.41;100.00
45541;BME280;31265;49.680;8.608;2023-07-20T02:02:43;100337.78;;;15.31;100.00
45541;BME280;31265;49.680;8.608;2023-07-20T02:05:13;100343.66;;;15.25;100.00
45541;BME280;31265;49.680;8.608;2023-07-20T02:07:42;100337.22;;;15.22;100.00
45541;BME280;31265;49.680;8.608;2023-07-20T02:10:13;100344.47;;;15.16;100.00
45541;BME280;31265;49.680;8.608;2023-07-20T02:12:41;100345.34;;;15.18;100.00
45541;BME280;31265;49.680;8.608;2023-07-20T02:15:10;100341.09;;;15.08;100.00
45541;BME280;31265;49.680;8.608;2023-07-20T02:17:40;100347.28;;;15.06;100.00
45541;BME280;31265;49.680;8.608;2023-07-20T02:20:11;100338.44;;;15.10;100.00
45541;BME280;31265;49.680;8.608;2023-07-20T02:22:39;100341.81;;;15.08;100.00
45541;BME280;31265;49.680;8.608;2023-07-20T02:25:08;100340.53;;;14.99;100.00
45541;BME280;31265;49.680;8.608;2023-07-20T02:27:37;100348.47;;;15.03;100.00
45541;BME280;31265;49.680;8.608;2023-07-20T02:30:07;100340.25;;;14.95;100.00
45541;BME280;31265;49.680;8.608;2023-07-20T02:32:36;100341.31;;;14.90;100.00
45541;BME280;31265;49.680;8.608;2023-07-20T02:35:05;100345.72;;;14.83;100.00
45541;BME280;31265;49.680;8.608;2023-07-20T02:37:35;100348.97;;;14.80;100.00
45541;BME280;31265;49.680;8.608;2023-07-20T02:40:05;100347.63;;;14.81;100.00
45541;BME280;31265;49.680;8.608;2023-07-20T02:42:34;100354.59;;;14.70;100.00
45541;BME280;31265;49.680;8.608;2023-07-20T02:45:03;100358.09;;;14.71;100.00
45541;BME280;31265;49.680;8.608;2023-07-20T02:47:32;100352.09;;;14.65;100.00
45541;BME280;31265;49.680;8.608;2023-07-20T02:50:00;100360.28;;;14.82;100.00
45541;BME280;31265;49.680;8.608;2023-07-20T02:52:29;100356.44;;;14.97;100.00
45541;BME280;31265;49.680;8.608;2023-07-20T02:54:58;100357.41;;;15.11;100.00
45541;BME280;31265;49.680;8.608;2023-07-20T02:57:28;100354.38;;;14.97;100.00
45541;BME280;31265;49.680;8.608;2023-07-20T02:59:56;100358.75;;;15.00;100.00
45541;BME280;31265;49.680;8.608;2023-07-20T03:02:24;100362.34;;;14.91;100.00
45541;BME280;31265;49.680;8.608;2023-07-20T03:04:53;100365.53;;;14.97;100.00
45541;BME280;31265;49.680;8.608;2023-07-20T03:07:21;100365.00;;;14.89;100.00
45541;BME280;31265;49.680;8.608;2023-07-20T03:09:49;100360.91;;;14.71;100.00
45541;BME280;31265;49.680;8.608;2023-07-20T03:12:19;100368.41;;;14.68;100.00
45541;BME280;31265;49.680;8.608;2023-07-20T03:14:50;100369.28;;;14.61;100.00
45541;BME280;31265;49.680;8.608;2023-07-20T03:17:20;100366.63;;;14.73;100.00
45541;BME280;31265;49.680;8.608;2023-07-20T03:19:51;100364.31;;;14.59;100.00
45541;BME280;31265;49.680;8.608;2023-07-20T03:22:19;100356.06;;;14.52;100.00
45541;BME280;31265;49.680;8.608;2023-07-20T03:24:48;100364.28;;;14.50;100.00
45541;BME280;31265;49.680;8.608;2023-07-20T03:27:17;100367.41;;;14.44;100.00
45541;BME280;31265;49.680;8.608;2023-07-20T03:29:47;100367.53;;;14.36;100.00
45541;BME280;31265;49.680;8.608;2023-07-20T03:32:16;100369.16;;;14.30;100.00
45541;BME280;31265;49.680;8.608;2023-07-20T03:34:44;100368.13;;;14.25;100.00
45541;BME280;31265;49.680;8.608;2023-07-20T03:37:13;100374.13;;;14.22;100.00
45541;BME280;31265;49.680;8.608;2023-07-20T03:39:42;100376.66;;;14.17;100.00
45541;BME280;31265;49.680;8.608;2023-07-20T03:42:11;100377.69;;;14.12;100.00
45541;BME280;31265;49.680;8.608;2023-07-20T03:44:39;100377.06;;;14.04;100.00
45541;BME280;31265;49.680;8.608;2023-07-20T03:47:09;100377.19;;;13.96;100.00
45541;BME280;31265;49.680;8.608;2023-07-20T03:49:37;100376.03;;;13.90;100.00
45541;BME280;31265;49.680;8.608;2023-07-20T03:52:06;100379.97;;;13.87;100.00
45541;BME280;31265;49.680;8.608;2023-07-20T03:54:34;100379.09;;;13.84;100.00
45541;BME280;31265;49.680;8.608;2023-07-20T03:57:03;100380.72;;;13.87;100.00
45541;BME280;31265;49.680;8.608;2023-07-20T03:59:31;100383.50;;;13.97;100.00
45541;BME280;31265;49.680;8.608;2023-07-20T04:02:06;100377.94;;;13.97;100.00
45541;BME280;31265;49.680;8.608;2023-07-20T04:04:39;100382.22;;;13.98;100.00
45541;BME280;31265;49.680;8.608;2023-07-20T04:07:07;100386.47;;;13.99;100.00
45541;BME280;31265;49.680;8.608;2023-07-20T04:09:37;100387.94;;;14.00;100.00
45541;BME280;31265;49.680;8.608;2023-07-20T04:12:06;100386.63;;;14.11;100.00
45541;BME280;31265;49.680;8.608;2023-07-20T04:14:34;100384.72;;;14.13;100.00
45541;BME280;31265;49.680;8.608;2023-07-20T04:17:03;100391.91;;;14.16;100.00
45541;BME280;31265;49.680;8.608;2023-07-20T04:19:32;100386.31;;;14.16;100.00
45541;BME280;31265;49.680;8.608;2023-07-20T04:22:01;100378.97;;;14.21;100.00
45541;BME280;31265;49.680;8.608;2023-07-20T04:24:29;100385.75;;;14.28;100.00
45541;BME280;31265;49.680;8.608;2023-07-20T04:26:58;100387.22;;;14.29;100.00
45541;BME280;31265;49.680;8.608;2023-07-20T04:29:26;100386.47;;;14.38;100.00
45541;BME280;31265;49.680;8.608;2023-07-20T04:31:54;100384.25;;;14.46;100.00
45541;BME280;31265;49.680;8.608;2023-07-20T04:34:23;100394.28;;;14.59;100.00
45541;BME280;31265;49.680;8.608;2023-07-20T04:36:51;100396.63;;;14.62;100.00
45541;BME280;31265;49.680;8.608;2023-07-20T04:39:24;100394.25;;;14.69;100.00
45541;BME280;31265;49.680;8.608;2023-07-20T04:42:04;100408.66;;;14.75;100.00
45541;BME280;31265;49.680;8.608;2023-07-20T04:44:32;100410.44;;;14.80;100.00
45541;BME280;31265;49.680;8.608;2023-07-20T04:47:02;100404.81;;;14.90;100.00
45541;BME280;31265;49.680;8.608;2023-07-20T04:49:33;100414.38;;;14.96;100.00
45541;BME280;31265;49.680;8.608;2023-07-20T04:52:02;100418.31;;;15.03;100.00
45541;BME280;31265;49.680;8.608;2023-07-20T04:54:33;100409.31;;;15.14;100.00
45541;BME280;31265;49.680;8.608;2023-07-20T04:57:01;100402.81;;;15.21;100.00
45541;BME280;31265;49.680;8.608;2023-07-20T04:59:30;100413.09;;;15.29;100.00
45541;BME280;31265;49.680;8.608;2023-07-20T05:01:58;100414.25;;;15.35;100.00
45541;BME280;31265;49.680;8.608;2023-07-20T05:04:26;100412.00;;;15.43;100.00
45541;BME280;31265;49.680;8.608;2023-07-20T05:07:04;100407.38;;;15.58;100.00
45541;BME280;31265;49.680;8.608;2023-07-20T05:09:34;100409.97;;;15.75;100.00
45541;BME280;31265;49.680;8.608;2023-07-20T05:12:03;100410.91;;;15.89;100.00
45541;BME280;31265;49.680;8.608;2023-07-20T05:14:31;100404.47;;;16.08;100.00
45541;BME280;31265;49.680;8.608;2023-07-20T05:17:00;100408.13;;;16.32;100.00
45541;BME280;31265;49.680;8.608;2023-07-20T05:19:29;100409.69;;;16.57;100.00
45541;BME280;31265;49.680;8.608;2023-07-20T05:21:57;100404.31;;;16.83;100.00
45541;BME280;31265;49.680;8.608;2023-07-20T05:24:26;100406.19;;;17.13;100.00
45541;BME280;31265;49.680;8.608;2023-07-20T05:26:55;100403.53;;;17.51;100.00
45541;BME280;31265;49.680;8.608;2023-07-20T05:29:24;100404.97;;;17.75;100.00
45541;BME280;31265;49.680;8.608;2023-07-20T05:31:52;100407.63;;;18.09;100.00
45541;BME280;31265;49.680;8.608;2023-07-20T05:34:20;100414.63;;;18.33;100.00
45541;BME280;31265;49.680;8.608;2023-07-20T05:36:49;100408.69;;;18.53;100.00
45541;BME280;31265;49.680;8.608;2023-07-20T05:39:17;100407.03;;;18.36;100.00
45541;BME280;31265;49.680;8.608;2023-07-20T05:41:46;100407.03;;;18.36;100.00
45541;BME280;31265;49.680;8.608;2023-07-20T05:44:15;100411.59;;;18.29;100.00
45541;BME280;31265;49.680;8.608;2023-07-20T05:46:43;100410.75;;;18.15;100.00
45541;BME280;31265;49.680;8.608;2023-07-20T05:49:24;100402.47;;;18.17;100.00
45541;BME280;31265;49.680;8.608;2023-07-20T05:51:52;100410.41;;;18.20;100.00
45541;BME280;31265;49.680;8.608;2023-07-20T05:54:20;100413.06;;;18.30;100.00
45541;BME280;31265;49.680;8.608;2023-07-20T05:56:48;100413.94;;;18.21;100.00
45541;BME280;31265;49.680;8.608;2023-07-20T05:59:18;100424.81;;;18.52;100.00
45541;BME280;31265;49.680;8.608;2023-07-20T06:01:47;100417.88;;;18.41;100.00
45541;BME280;31265;49.680;8.608;2023-07-20T06:04:16;100422.22;;;18.56;100.00
45541;BME280;31265;49.680;8.608;2023-07-20T06:06:45;100415.28;;;18.57;100.00
45541;BME280;31265;49.680;8.608;2023-07-20T06:09:13;100415.16;;;18.81;100.00
45541;BME280;31265;49.680;8.608;2023-07-20T06:11:42;100427.59;;;18.89;100.00
45541;BME280;31265;49.680;8.608;2023-07-20T06:14:10;100427.81;;;18.94;100.00
45541;BME280;31265;49.680;8.608;2023-07-20T06:16:40;100425.34;;;19.00;100.00
45541;BME280;31265;49.680;8.608;2023-07-20T06:19:08;100430.91;;;19.11;100.00
45541;BME280;31265;49.680;8.608;2023-07-20T06:21:38;100433.50;;;19.21;100.00
45541;BME280;31265;49.680;8.608;2023-07-20T06:24:07;100425.69;;;19.20;100.00
45541;BME280;31265;49.680;8.608;2023-07-20T06:26:35;100422.59;;;19.27;100.00
45541;BME280;31265;49.680;8.608;2023-07-20T06:29:06;100436.38;;;19.49;100.00
45541;BME280;31265;49.680;8.608;2023-07-20T06:31:34;100432.47;;;19.28;100.00
45541;BME280;31265;49.680;8.608;2023-07-20T06:34:04;100429.06;;;19.58;100.00
45541;BME280;31265;49.680;8.608;2023-07-20T06:36:32;100425.94;;;19.65;100.00
45541;BME280;31265;49.680;8.608;2023-07-20T06:39:01;100431.69;;;19.95;100.00
45541;BME280;31265;49.680;8.608;2023-07-20T06:41:32;100424.88;;;20.14;100.00
45541;BME280;31265;49.680;8.608;2023-07-20T06:44:04;100432.88;;;20.33;100.00
45541;BME280;31265;49.680;8.608;2023-07-20T06:46:32;100433.75;;;20.52;100.00
45541;BME280;31265;49.680;8.608;2023-07-20T06:49:00;100437.72;;;20.90;100.00
45541;BME280;31265;49.680;8.608;2023-07-20T06:51:33;100430.28;;;20.97;100.00
45541;BME280;31265;49.680;8.608;2023-07-20T06:54:01;100437.41;;;21.45;100.00
45541;BME280;31265;49.680;8.608;2023-07-20T06:56:31;100447.41;;;21.64;100.00
45541;BME280;31265;49.680;8.608;2023-07-20T06:59:00;100438.47;;;21.70;100.00
45541;BME280;31265;49.680;8.608;2023-07-20T07:01:29;100437.53;;;22.15;100.00
45541;BME280;31265;49.680;8.608;2023-07-20T07:03:59;100442.84;;;22.59;100.00
45541;BME280;31265;49.680;8.608;2023-07-20T07:06:28;100442.22;;;22.60;97.91
45541;BME280;31265;49.680;8.608;2023-07-20T07:08:58;100456.78;;;22.19;100.00
45541;BME280;31265;49.680;8.608;2023-07-20T07:11:26;100438.75;;;22.10;100.00
45541;BME280;31265;49.680;8.608;2023-07-20T07:13:55;100451.00;;;22.68;99.20
45541;BME280;31265;49.680;8.608;2023-07-20T07:16:23;100446.88;;;22.36;100.00
45541;BME280;31265;49.680;8.608;2023-07-20T07:18:53;100447.13;;;22.08;100.00
45541;BME280;31265;49.680;8.608;2023-07-20T07:21:26;100446.88;;;23.07;95.00
45541;BME280;31265;49.680;8.608;2023-07-20T07:23:54;100446.19;;;24.07;90.32
45541;BME280;31265;49.680;8.608;2023-07-20T07:26:26;100444.56;;;24.43;86.99
45541;BME280;31265;49.680;8.608;2023-07-20T07:28:54;100439.22;;;24.54;83.72
45541;BME280;31265;49.680;8.608;2023-07-20T07:31:24;100436.72;;;24.64;86.26
45541;BME280;31265;49.680;8.608;2023-07-20T07:33:52;100444.31;;;23.93;87.35
45541;BME280;31265;49.680;8.608;2023-07-20T07:36:21;100441.97;;;23.28;92.12
45541;BME280;31265;49.680;8.608;2023-07-20T07:38:51;100440.69;;;22.75;95.81
45541;BME280;31265;49.680;8.608;2023-07-20T07:41:22;100444.31;;;22.42;99.01
45541;BME280;31265;49.680;8.608;2023-07-20T07:43:52;100448.00;;;22.28;99.52
45541;BME280;31265;49.680;8.608;2023-07-20T07:46:20;100446.25;;;22.73;99.22
45541;BME280;31265;49.680;8.608;2023-07-20T07:48:49;100437.19;;;22.76;96.54
45541;BME280;31265;49.680;8.608;2023-07-20T07:51:18;100443.50;;;22.75;98.45
45541;BME280;31265;49.680;8.608;2023-07-20T07:53:46;100449.94;;;23.13;96.90
45541;BME280;31265;49.680;8.608;2023-07-20T07:56:16;100448.25;;;22.88;97.08
45541;BME280;31265;49.680;8.608;2023-07-20T07:58:50;100444.44;;;22.82;96.10
45541;BME280;31265;49.680;8.608;2023-07-20T08:01:20;100455.16;;;21.98;100.00
45541;BME280;31265;49.680;8.608;2023-07-20T08:03:49;100453.84;;;21.83;100.00
45541;BME280;31265;49.680;8.608;2023-07-20T08:06:18;100446.31;;;22.93;98.63
45541;BME280;31265;49.680;8.608;2023-07-20T08:08:46;100455.09;;;24.19;93.44
45541;BME280;31265;49.680;8.608;2023-07-20T08:11:15;100450.13;;;24.85;86.65
45541;BME280;31265;49.680;8.608;2023-07-20T08:13:44;100450.44;;;24.96;81.50
45541;BME280;31265;49.680;8.608;2023-07-20T08:16:13;100458.16;;;25.41;74.66
45541;BME280;31265;49.680;8.608;2023-07-20T08:18:43;100463.44;;;25.27;73.51
45541;BME280;31265;49.680;8.608;2023-07-20T08:21:12;100452.38;;;25.13;78.66
45541;BME280;31265;49.680;8.608;2023-07-20T08:23:41;100451.00;;;25.64;74.69
45541;BME280;31265;49.680;8.608;2023-07-20T08:26:09;100442.22;;;24.82;76.10
45541;BME280;31265;49.680;8.608;2023-07-20T08:28:38;100443.16;;;24.22;85.79
45541;BME280;31265;49.680;8.608;2023-07-20T08:31:06;100445.09;;;25.30;79.66
45541;BME280;31265;49.680;8.608;2023-07-20T08:33:35;100438.50;;;25.75;82.38
45541;BME280;31265;49.680;8.608;2023-07-20T08:36:05;100432.69;;;26.26;75.29
45541;BME280;31265;49.680;8.608;2023-07-20T08:38:38;100436.75;;;25.88;80.95
45541;BME280;31265;49.680;8.608;2023-07-20T08:41:06;100439.78;;;26.85;69.16
45541;BME280;31265;49.680;8.608;2023-07-20T08:43:36;100444.53;;;26.74;67.77
45541;BME280;31265;49.680;8.608;2023-07-20T08:46:08;100449.78;;;26.86;64.89
45541;BME280;31265;49.680;8.608;2023-07-20T08:48:39;100441.72;;;27.09;61.47
45541;BME280;31265;49.680;8.608;2023-07-20T08:51:11;100445.00;;;27.65;63.87
45541;BME280;31265;49.680;8.608;2023-07-20T08:53:40;100445.06;;;27.67;56.98
45541;BME280;31265;49.680;8.608;2023-07-20T08:56:09;100433.69;;;27.70;58.88
45541;BME280;31265;49.680;8.608;2023-07-20T08:58:39;100437.31;;;27.36;60.60
45541;BME280;31265;49.680;8.608;2023-07-20T09:01:10;100443.22;;;26.79;63.18
45541;BME280;31265;49.680;8.608;2023-07-20T09:03:39;100438.31;;;26.82;60.89
45541;BME280;31265;49.680;8.608;2023-07-20T09:06:11;100441.47;;;25.80;69.28
45541;BME280;31265;49.680;8.608;2023-07-20T09:08:40;100440.75;;;25.53;70.71
45541;BME280;31265;49.680;8.608;2023-07-20T09:11:10;100438.78;;;25.09;80.90
45541;BME280;31265;49.680;8.608;2023-07-20T09:13:39;100431.03;;;25.12;74.44
45541;BME280;31265;49.680;8.608;2023-07-20T09:16:08;100436.50;;;25.80;74.13
45541;BME280;31265;49.680;8.608;2023-07-20T09:18:37;100427.22;;;26.64;65.78
45541;BME280;31265;49.680;8.608;2023-07-20T09:21:06;100425.63;;;27.58;61.98
45541;BME280;31265;49.680;8.608;2023-07-20T09:23:38;100426.06;;;27.44;60.20
45541;BME280;31265;49.680;8.608;2023-07-20T09:26:09;100413.41;;;27.90;55.62
45541;BME280;31265;49.680;8.608;2023-07-20T09:28:42;100417.16;;;28.45;52.77
45541;BME280;31265;49.680;8.608;2023-07-20T09:31:17;100419.16;;;27.94;53.87
45541;BME280;31265;49.680;8.608;2023-07-20T09:33:46;100431.94;;;27.91;52.93
45541;BME280;31265;49.680;8.608;2023-07-20T09:36:18;100427.19;;;26.62;56.45
45541;BME280;31265;49.680;8.608;2023-07-20T09:39:08;100419.38;;;24.32;72.33
45541;BME280;31265;49.680;8.608;2023-07-20T09:41:39;100426.50;;;26.05;74.71
45541;BME280;31265;49.680;8.608;2023-07-20T09:44:14;100419.63;;;27.80;55.23
45541;BME280;31265;49.680;8.608;2023-07-20T09:46:46;100420.03;;;27.64;54.71
45541;BME280;31265;49.680;8.608;2023-07-20T09:49:17;100420.44;;;27.12;53.53
45541;BME280;31265;49.680;8.608;2023-07-20T09:51:49;100419.75;;;27.48;51.89
45541;BME280;31265;49.680;8.608;2023-07-20T09:54:19;100421.91;;;27.49;52.33
45541;BME280;31265;49.680;8.608;2023-07-20T09:56:50;100414.53;;;28.15;49.81
45541;BME280;31265;49.680;8.608;2023-07-20T09:59:19;100415.47;;;28.74;48.82
45541;BME280;31265;49.680;8.608;2023-07-20T10:01:49;100414.75;;;27.84;48.41
45541;BME280;31265;49.680;8.608;2023-07-20T10:04:21;100412.00;;;27.52;53.11
45541;BME280;31265;49.680;8.608;2023-07-20T10:06:52;100416.84;;;26.77;53.89
45541;BME280;31265;49.680;8.608;2023-07-20T10:09:25;100413.28;;;25.88;57.99
45541;BME280;31265;49.680;8.608;2023-07-20T10:11:56;100406.78;;;25.57;63.12
45541;BME280;31265;49.680;8.608;2023-07-20T10:14:50;100408.88;;;25.57;67.23
45541;BME280;31265;49.680;8.608;2023-07-20T10:17:21;100398.09;;;25.51;63.87
45541;BME280;31265;49.680;8.608;2023-07-20T10:19:54;100413.25;;;26.16;57.82
45541;BME280;31265;49.680;8.608;2023-07-20T10:22:26;100403.63;;;27.24;52.76
45541;BME280;31265;49.680;8.608;2023-07-20T10:24:57;100394.59;;;28.63;50.20
45541;BME280;31265;49.680;8.608;2023-07-20T10:27:27;100393.16;;;29.15;46.14
45541;BME280;31265;49.680;8.608;2023-07-20T10:29:57;100388.28;;;29.26;45.94
45541;BME280;31265;49.680;8.608;2023-07-20T10:32:27;100385.31;;;28.14;45.44
45541;BME280;31265;49.680;8.608;2023-07-20T10:34:58;100381.03;;;27.34;48.48
45541;BME280;31265;49.680;8.608;2023-07-20T10:37:46;100382.66;;;29.34;50.28
45541;BME280;31265;49.680;8.608;2023-07-20T10:40:30;100377.94;;;29.63;45.54
45541;BME280;31265;49.680;8.608;2023-07-20T10:43:00;100371.19;;;30.09;44.69
45541;BME280;31265;49.680;8.608;2023-07-20T10:45:42;100370.66;;;29.48;41.26
45541;BME280;31265;49.680;8.608;2023-07-20T10:48:15;100370.22;;;29.74;40.59
45541;BME280;31265;49.680;8.608;2023-07-20T10:50:46;100362.13;;;30.35;43.50
45541;BME280;31265;49.680;8.608;2023-07-20T10:53:17;100354.00;;;31.44;38.66
45541;BME280;31265;49.680;8.608;2023-07-20T10:55:47;100355.31;;;31.02;39.05
45541;BME280;31265;49.680;8.608;2023-07-20T10:58:17;100353.91;;;29.91;40.88
45541;BME280;31265;49.680;8.608;2023-07-20T11:01:00;100350.81;;;28.99;42.01
45541;BME280;31265;49.680;8.608;2023-07-20T11:03:31;100352.81;;;28.36;43.64
45541;BME280;31265;49.680;8.608;2023-07-20T11:06:29;100336.97;;;27.80;44.08
45541;BME280;31265;49.680;8.608;2023-07-20T11:09:04;100341.94;;;27.79;44.98
45541;BME280;31265;49.680;8.608;2023-07-20T11:11:37;100339.38;;;27.53;46.71
45541;BME280;31265;49.680;8.608;2023-07-20T11:14:08;100335.44;;;27.73;47.73
45541;BME280;31265;49.680;8.608;2023-07-20T11:16:38;100332.28;;;27.97;48.68
45541;BME280;31265;49.680;8.608;2023-07-20T11:19:16;100336.81;;;27.70;48.62
45541;BME280;31265;49.680;8.608;2023-07-20T11:21:50;100338.34;;;27.36;50.41
45541;BME280;31265;49.680;8.608;2023-07-20T11:24:29;100337.75;;;27.06;48.73
45541;BME280;31265;49.680;8.608;2023-07-20T11:27:00;100331.00;;;26.89;48.68
45541;BME280;31265;49.680;8.608;2023-07-20T11:29:29;100331.78;;;26.57;50.54
45541;BME280;31265;49.680;8.608;2023-07-20T11:32:01;100329.41;;;26.47;49.03
45541;BME280;31265;49.680;8.608;2023-07-20T11:34:33;100327.31;;;26.50;49.92
45541;BME280;31265;49.680;8.608;2023-07-20T11:37:02;100333.28;;;26.30;48.88
45541;BME280;31265;49.680;8.608;2023-07-20T11:39:33;100339.63;;;26.28;50.33
45541;BME280;31265;49.680;8.608;2023-07-20T11:42:05;100327.81;;;25.80;52.21
45541;BME280;31265;49.680;8.608;2023-07-20T11:44:34;100327.34;;;25.61;55.56
45541;BME280;31265;49.680;8.608;2023-07-20T11:47:04;100330.50;;;25.45;54.70
45541;BME280;31265;49.680;8.608;2023-07-20T11:49:35;100329.34;;;25.04;55.96
45541;BME280;31265;49.680;8.608;2023-07-20T11:52:07;100329.59;;;25.13;58.96
45541;BME280;31265;49.680;8.608;2023-07-20T11:54:37;100331.38;;;25.52;57.03
45541;BME280;31265;49.680;8.608;2023-07-20T11:57:16;100323.41;;;26.03;55.25
45541;BME280;31265;49.680;8.608;2023-07-20T11:59:52;100318.84;;;26.52;52.93
45541;BME280;31265;49.680;8.608;2023-07-20T12:02:21;100317.81;;;27.06;51.17
45541;BME280;31265;49.680;8.608;2023-07-20T12:04:50;100321.56;;;27.53;50.88
45541;BME280;31265;49.680;8.608;2023-07-20T12:07:19;100314.34;;;27.48;50.19
45541;BME280;31265;49.680;8.608;2023-07-20T12:10:03;100319.47;;;26.83;53.27
45541;BME280;31265;49.680;8.608;2023-07-20T12:12:33;100315.16;;;26.79;51.34
45541;BME280;31265;49.680;8.608;2023-07-20T12:15:15;100310.44;;;25.95;58.77
45541;BME280;31265;49.680;8.608;2023-07-20T12:17:44;100312.41;;;25.89;54.66
45541;BME280;31265;49.680;8.608;2023-07-20T12:20:24;100314.69;;;26.25;52.04
45541;BME280;31265;49.680;8.608;2023-07-20T12:22:56;100302.34;;;27.17;49.44
45541;BME280;31265;49.680;8.608;2023-07-20T12:25:33;100297.22;;;27.88;46.15
45541;BME280;31265;49.680;8.608;2023-07-20T12:28:04;100301.75;;;28.05;47.61
45541;BME280;31265;49.680;8.608;2023-07-20T12:30:33;100296.47;;;28.89;45.57
45541;BME280;31265;49.680;8.608;2023-07-20T12:33:02;100299.63;;;29.99;42.97
45541;BME280;31265;49.680;8.608;2023-07-20T12:35:30;100299.28;;;30.66;41.56
45541;BME280;31265;49.680;8.608;2023-07-20T12:37:59;100299.41;;;30.84;55.27
45541;BME280;31265;49.680;8.608;2023-07-20T12:40:28;100290.94;;;31.70;39.14
45541;BME280;31265;49.680;8.608;2023-07-20T12:42:56;100294.53;;;31.59;38.27
45541;BME280;31265;49.680;8.608;2023-07-20T12:45:26;100297.75;;;30.40;37.62
45541;BME280;31265;49.680;8.608;2023-07-20T12:47:54;100294.63;;;29.97;39.89
45541;BME280;31265;49.680;8.608;2023-07-20T12:50:23;100290.97;;;29.09;39.60
45541;BME280;31265;49.680;8.608;2023-07-20T12:52:51;100278.59;;;28.32;41.38
45541;BME280;31265;49.680;8.608;2023-07-20T12:55:20;100285.50;;;28.16;44.32
45541;BME280;31265;49.680;8.608;2023-07-20T12:57:48;100281.72;;;27.99;42.48
45541;BME280;31265;49.680;8.608;2023-07-20T13:00:17;100286.34;;;27.78;43.33
45541;BME280;31265;49.680;8.608;2023-07-20T13:02:47;100276.94;;;28.14;44.92
45541;BME280;31265;49.680;8.608;2023-07-20T13:05:34;100282.94;;;28.93;42.35